Time;durP1;ratioP1;P1;durP2;ratioP2;P2;SDS_P1;SDS_P2;PMS_P1;PMS_P2;Temp;Humidity;BMP_temperature;BMP_pressure;BME280_temperature;BME280_humidity;BME280_pressure;Samples;Min_cycle;Max_cycle;Signal;HPM_P1;HPM_P2
2021/07/29 00:00:34;;;;;;;3.30;1.85;;;;;;;20.41;78.39;100221.84;5010006;28;20538;-75
2021/07/29 00:02:59;;;;;;;3.42;1.92;;;;;;;20.41;77.54;100223.78;5003584;28;20254;-75
2021/07/29 00:05:26;;;;;;;5.50;1.80;;;;;;;20.13;78.59;100219.81;5010157;28;20411;-75
2021/07/29 00:07:53;;;;;;;3.08;1.65;;;;;;;20.27;79.70;100215.97;5010497;28;20084;-75
2021/07/29 00:10:18;;;;;;;3.75;1.77;;;;;;;20.04;79.73;100200.50;4992966;28;20029;-75
2021/07/29 00:12:44;;;;;;;2.53;1.77;;;;;;;20.22;79.95;100211.03;4986457;28;20095;-75
2021/07/29 00:15:12;;;;;;;4.22;2.00;;;;;;;20.28;78.78;100207.34;5000562;28;20573;-75
2021/07/29 00:20:14;;;;;;;4.05;1.92;;;;;;;20.17;78.51;100197.84;5008770;28;20052;-75
2021/07/29 00:22:43;;;;;;;3.85;2.10;;;;;;;20.40;78.43;100203.88;4988542;28;20181;-75
2021/07/29 00:25:13;;;;;;;4.97;1.90;;;;;;;20.32;79.12;100202.53;4999423;28;20042;-75
2021/07/29 00:27:43;;;;;;;7.20;1.98;;;;;;;20.30;78.17;100198.69;5003512;28;20122;-75
2021/07/29 00:30:10;;;;;;;4.35;2.25;;;;;;;20.14;79.15;100202.22;5003311;28;20116;-75
2021/07/29 00:32:36;;;;;;;5.43;1.98;;;;;;;20.27;78.73;100202.28;5003740;28;20033;-75
2021/07/29 00:35:06;;;;;;;4.75;1.92;;;;;;;20.02;79.21;100197.44;5009543;28;20165;-75
2021/07/29 00:37:36;;;;;;;6.15;2.38;;;;;;;20.12;79.53;100193.66;5005046;28;20458;-75
2021/07/29 00:40:03;;;;;;;3.75;1.80;;;;;;;19.91;79.65;100182.50;4989168;28;20498;-75
2021/07/29 00:42:29;;;;;;;4.30;1.88;;;;;;;20.09;79.81;100178.09;4992576;28;20084;-75
2021/07/29 00:44:54;;;;;;;6.65;2.90;;;;;;;20.11;78.81;100174.97;5003795;28;20041;-75
2021/07/29 00:47:20;;;;;;;3.35;2.05;;;;;;;20.03;79.07;100182.59;5011407;28;20034;-76
2021/07/29 00:49:47;;;;;;;5.30;2.25;;;;;;;19.92;79.91;100184.81;4993406;28;20038;-76
2021/07/29 00:52:20;;;;;;;5.57;1.90;;;;;;;20.03;80.29;100168.13;5005879;28;20038;-76
2021/07/29 00:54:46;;;;;;;3.28;2.10;;;;;;;20.01;79.72;100170.53;4994460;28;20038;-76
2021/07/29 00:57:12;;;;;;;4.53;1.98;;;;;;;19.95;80.01;100173.03;4996398;28;20041;-76
2021/07/29 00:59:39;;;;;;;5.63;1.80;;;;;;;20.09;79.40;100171.88;4989379;28;20048;-76
2021/07/29 01:02:05;;;;;;;3.22;1.90;;;;;;;19.80;79.72;100161.66;5001546;28;20109;-74
2021/07/29 01:04:30;;;;;;;4.85;2.05;;;;;;;19.76;79.89;100165.72;5008681;28;20041;-75
2021/07/29 01:06:56;;;;;;;4.45;1.90;;;;;;;19.94;80.06;100166.00;5010818;28;20056;-76
2021/07/29 01:09:22;;;;;;;2.67;1.77;;;;;;;19.85;80.27;100163.13;5011756;28;20079;-76
2021/07/29 01:11:47;;;;;;;4.60;2.10;;;;;;;19.70;80.23;100156.50;4990388;28;20034;-75
2021/07/29 01:14:13;;;;;;;3.20;1.90;;;;;;;19.45;81.28;100157.06;5002418;28;20108;-76
2021/07/29 01:16:39;;;;;;;2.83;1.80;;;;;;;19.64;80.99;100152.72;5008431;28;20032;-76
2021/07/29 01:19:06;;;;;;;5.22;2.08;;;;;;;19.59;80.44;100156.72;5004203;28;20030;-76
2021/07/29 01:21:32;;;;;;;5.35;2.00;;;;;;;19.67;80.06;100146.41;5001804;28;20178;-76
2021/07/29 01:23:59;;;;;;;4.57;2.10;;;;;;;19.55;79.75;100153.31;5010754;28;20112;-76
2021/07/29 01:26:27;;;;;;;6.20;2.00;;;;;;;19.60;78.56;100147.34;4992781;28;20510;-76
2021/07/29 01:28:53;;;;;;;4.60;2.00;;;;;;;19.39;80.61;100142.41;4981536;28;20033;-76
2021/07/29 01:31:18;;;;;;;3.05;2.10;;;;;;;19.61;79.79;100137.19;5007974;28;20486;-76
2021/07/29 01:33:44;;;;;;;3.05;1.83;;;;;;;19.52;79.40;100140.53;4988811;28;20033;-76
2021/07/29 01:36:10;;;;;;;7.47;2.13;;;;;;;19.35;80.56;100127.28;5011483;28;20394;-75
2021/07/29 01:38:35;;;;;;;5.95;1.77;;;;;;;19.38;80.28;100129.16;4970888;28;20030;-77
2021/07/29 01:41:04;;;;;;;4.80;2.05;;;;;;;19.32;79.85;100128.91;5000345;28;20050;-76
2021/07/29 01:43:30;;;;;;;6.22;1.90;;;;;;;19.43;80.03;100128.66;5005001;28;20562;-76
2021/07/29 01:45:56;;;;;;;2.95;1.83;;;;;;;19.32;80.24;100122.66;5006367;28;20021;-75
2021/07/29 01:48:21;;;;;;;3.80;2.15;;;;;;;19.43;79.96;100115.78;4986167;28;20219;-76
2021/07/29 01:50:47;;;;;;;3.13;1.90;;;;;;;19.35;80.40;100117.16;5009166;28;20033;-76
2021/07/29 01:53:12;;;;;;;2.92;2.00;;;;;;;19.37;81.27;100111.25;5013405;28;20455;-75
2021/07/29 01:55:42;;;;;;;6.55;1.90;;;;;;;19.32;80.34;100100.78;5009870;28;20033;-76
2021/07/29 01:58:11;;;;;;;4.88;2.05;;;;;;;19.27;80.50;100099.38;5010556;28;20782;-76
2021/07/29 02:00:37;;;;;;;4.22;2.17;;;;;;;19.20;81.01;100106.97;4991654;28;20082;-76
2021/07/29 02:03:03;;;;;;;3.88;2.20;;;;;;;18.98;81.79;100112.13;5008473;28;20070;-75
2021/07/29 02:05:29;;;;;;;3.58;2.17;;;;;;;18.96;82.22;100102.84;4991955;28;20106;-76
2021/07/29 02:07:55;;;;;;;4.65;2.30;;;;;;;19.12;81.95;100109.09;5012088;28;20065;-76
2021/07/29 02:10:20;;;;;;;3.97;2.00;;;;;;;19.09;81.58;100109.94;5006675;28;20468;-76
2021/07/29 02:12:47;;;;;;;4.32;1.98;;;;;;;18.96;83.30;100106.34;4992014;28;20088;-76
2021/07/29 02:15:12;;;;;;;4.22;2.17;;;;;;;18.99;82.45;100096.53;4988484;28;20065;-77
2021/07/29 02:17:38;;;;;;;2.70;2.20;;;;;;;18.92;82.04;100097.47;5010878;28;20073;-77
2021/07/29 02:20:04;;;;;;;4.13;2.08;;;;;;;18.98;82.46;100087.56;5003873;28;20042;-76
2021/07/29 02:22:29;;;;;;;4.70;2.58;;;;;;;18.85;83.22;100095.66;4992176;28;20113;-76
2021/07/29 02:24:55;;;;;;;9.18;2.40;;;;;;;18.87;82.90;100098.72;5012477;28;20133;-76
2021/07/29 02:27:23;;;;;;;6.35;2.60;;;;;;;18.99;82.58;100094.56;5013728;28;20048;-76
2021/07/29 02:29:50;;;;;;;3.70;2.17;;;;;;;19.06;82.42;100102.59;4988989;28;20038;-76
2021/07/29 02:32:15;;;;;;;4.78;2.40;;;;;;;19.06;82.85;100096.38;5014057;28;20037;-76
2021/07/29 02:34:41;;;;;;;5.22;2.47;;;;;;;18.87;84.44;100098.72;5007134;28;20026;-76
2021/07/29 02:37:06;;;;;;;3.63;2.25;;;;;;;18.98;83.95;100092.25;5002465;28;20058;-76
2021/07/29 02:39:32;;;;;;;5.78;2.88;;;;;;;18.87;83.68;100096.00;4989293;28;20070;-77
2021/07/29 02:41:57;;;;;;;4.47;2.42;;;;;;;18.97;83.40;100093.47;5010099;28;20037;-76
2021/07/29 02:44:23;;;;;;;3.33;2.13;;;;;;;18.77;84.12;100090.78;5011445;28;20034;-76
2021/07/29 02:46:48;;;;;;;4.82;2.40;;;;;;;18.76;84.10;100075.59;4994688;28;20406;-76
2021/07/29 02:49:13;;;;;;;5.93;2.30;;;;;;;18.99;83.60;100083.63;5009957;28;20113;-76
2021/07/29 02:51:39;;;;;;;3.47;2.58;;;;;;;18.77;83.92;100085.34;5013268;28;20421;-76
2021/07/29 02:54:05;;;;;;;7.75;2.60;;;;;;;18.76;84.37;100072.88;5000683;28;20108;-77
2021/07/29 02:56:30;;;;;;;4.60;2.30;;;;;;;18.86;83.62;100082.78;5004765;28;20046;-76
2021/07/29 02:58:56;;;;;;;4.53;2.58;;;;;;;18.73;84.37;100069.03;5010209;28;20092;-76
2021/07/29 03:01:21;;;;;;;5.05;2.58;;;;;;;18.57;84.43;100073.69;5011821;28;20034;-77
2021/07/29 03:03:47;;;;;;;6.15;2.65;;;;;;;18.77;84.19;100075.19;4990798;28;20049;-76
2021/07/29 03:06:12;;;;;;;7.43;2.20;;;;;;;18.70;83.89;100060.91;4988285;28;20541;-76
2021/07/29 03:08:38;;;;;;;4.72;2.60;;;;;;;18.77;83.81;100069.75;4995570;28;20032;-76
2021/07/29 03:11:04;;;;;;;3.78;2.17;;;;;;;18.96;83.73;100061.88;4979161;28;20108;-76
2021/07/29 03:13:29;;;;;;;4.35;2.40;;;;;;;18.87;83.81;100065.97;5008483;28;20494;-77
2021/07/29 03:15:55;;;;;;;5.32;2.53;;;;;;;18.51;84.37;100061.72;5011992;28;20041;-76
2021/07/29 03:18:20;;;;;;;3.58;2.40;;;;;;;18.67;84.03;100081.66;4975579;28;20014;-76
2021/07/29 03:20:46;;;;;;;3.88;2.30;;;;;;;18.61;84.54;100077.09;5006289;28;20038;-77
2021/07/29 03:23:12;;;;;;;5.43;2.60;;;;;;;18.73;84.88;100082.69;5003012;28;20065;-76
2021/07/29 03:25:37;;;;;;;5.20;2.30;;;;;;;18.79;84.30;100082.94;5008112;28;20046;-76
2021/07/29 03:28:04;;;;;;;3.70;2.22;;;;;;;18.94;83.84;100081.44;5007892;28;20072;-76
2021/07/29 03:30:30;;;;;;;7.22;2.60;;;;;;;18.96;83.57;100084.50;5011382;28;20034;-77
2021/07/29 03:32:55;;;;;;;5.38;2.38;;;;;;;19.03;83.31;100076.13;5010034;28;20175;-77
2021/07/29 03:35:21;;;;;;;3.58;2.25;;;;;;;18.96;84.33;100078.28;5008890;28;20030;-77
2021/07/29 03:37:46;;;;;;;2.80;2.30;;;;;;;18.91;83.69;100082.28;5012416;28;20053;-77
2021/07/29 03:40:12;;;;;;;4.55;3.10;;;;;;;18.97;83.77;100071.63;4989902;28;20025;-76
2021/07/29 03:42:38;;;;;;;5.93;2.38;;;;;;;18.76;84.46;100067.41;5012793;28;20040;-76
2021/07/29 03:45:04;;;;;;;5.35;2.60;;;;;;;18.75;84.52;100077.56;5006291;28;20037;-75
2021/07/29 03:47:29;;;;;;;4.00;2.45;;;;;;;18.97;84.36;100071.63;4994884;28;20778;-75
2021/07/29 03:49:55;;;;;;;4.18;2.70;;;;;;;18.70;85.16;100080.00;5011388;28;20042;-76
2021/07/29 03:52:20;;;;;;;5.70;2.70;;;;;;;18.64;85.33;100076.28;5012338;28;20036;-75
2021/07/29 03:54:49;;;;;;;4.55;2.42;;;;;;;18.63;85.43;100082.91;4992876;28;20045;-75
2021/07/29 03:57:14;;;;;;;4.93;2.70;;;;;;;18.68;85.27;100069.53;5000302;28;20046;-76
2021/07/29 03:59:40;;;;;;;5.90;2.53;;;;;;;18.86;84.52;100074.59;5009495;28;20052;-76
2021/07/29 04:02:09;;;;;;;3.35;2.42;;;;;;;18.67;84.61;100072.69;5001380;28;20121;-75
2021/07/29 04:04:39;;;;;;;6.15;2.60;;;;;;;18.87;83.79;100079.63;5009750;28;20398;-76
2021/07/29 04:07:05;;;;;;;2.53;2.25;;;;;;;18.82;83.48;100087.53;5007672;28;20025;-75
2021/07/29 04:09:31;;;;;;;3.83;2.50;;;;;;;18.88;83.22;100080.41;5011350;28;20096;-75
2021/07/29 04:11:56;;;;;;;3.38;2.15;;;;;;;18.95;82.35;100077.50;4991287;28;20034;-76
2021/07/29 04:14:22;;;;;;;4.30;2.33;;;;;;;18.96;82.13;100091.91;4990353;28;20041;-75
2021/07/29 04:16:47;;;;;;;3.78;2.20;;;;;;;18.93;82.14;100080.66;4993936;28;20040;-75
2021/07/29 04:19:13;;;;;;;3.17;2.40;;;;;;;18.99;81.27;100086.38;5004079;28;20070;-75
2021/07/29 04:21:38;;;;;;;6.53;2.30;;;;;;;19.15;80.78;100088.34;5003671;28;20403;-76
2021/07/29 04:24:04;;;;;;;3.67;1.85;;;;;;;19.11;80.58;100087.66;4985833;28;20039;-75
2021/07/29 04:26:29;;;;;;;2.90;2.17;;;;;;;19.28;80.31;100086.47;4987443;28;20112;-76
2021/07/29 04:28:55;;;;;;;3.70;2.20;;;;;;;19.15;80.14;100096.53;5011535;28;20544;-75
2021/07/29 04:31:20;;;;;;;4.90;2.42;;;;;;;19.07;80.52;100103.34;5008768;28;20037;-75
2021/07/29 04:33:46;;;;;;;5.72;2.08;;;;;;;19.25;80.37;100099.03;4995055;28;20120;-76
2021/07/29 04:36:11;;;;;;;6.38;2.40;;;;;;;19.18;79.97;100104.63;5003992;28;20514;-75
2021/07/29 04:38:37;;;;;;;3.05;2.55;;;;;;;19.07;80.86;100108.81;5001583;28;20033;-75
2021/07/29 04:41:03;;;;;;;6.40;2.30;;;;;;;18.94;80.82;100106.00;4994773;28;20018;-75
2021/07/29 04:43:29;;;;;;;3.85;2.08;;;;;;;19.04;80.92;100107.72;5008150;28;20042;-76
2021/07/29 04:45:54;;;;;;;4.75;2.28;;;;;;;19.01;81.45;100110.53;5003763;28;20031;-75
2021/07/29 04:48:19;;;;;;;6.35;2.22;;;;;;;19.13;81.01;100096.97;5002777;28;20088;-76
2021/07/29 04:50:45;;;;;;;3.10;2.22;;;;;;;19.17;80.43;100091.41;5003868;28;20173;-75
2021/07/29 04:53:10;;;;;;;3.90;2.50;;;;;;;19.14;80.00;100093.06;5005933;28;20045;-75
2021/07/29 04:55:36;;;;;;;3.45;2.00;;;;;;;19.25;80.84;100087.31;4991276;28;20057;-76
2021/07/29 04:58:03;;;;;;;3.65;2.20;;;;;;;19.25;80.30;100098.25;5009282;28;20050;-76
2021/07/29 05:00:30;;;;;;;4.30;2.53;;;;;;;19.07;80.48;100097.88;4994798;28;20034;-75
2021/07/29 05:02:55;;;;;;;4.88;2.40;;;;;;;18.99;81.03;100091.09;4990902;28;20121;-75
2021/07/29 05:05:21;;;;;;;5.68;2.30;;;;;;;18.98;80.81;100089.53;5004054;28;20100;-75
2021/07/29 05:07:50;;;;;;;4.40;2.05;;;;;;;19.08;81.01;100093.97;4992961;28;20076;-75
2021/07/29 05:10:16;;;;;;;4.70;2.33;;;;;;;19.06;82.03;100094.41;5007930;28;20045;-75
2021/07/29 05:12:41;;;;;;;4.53;2.25;;;;;;;19.24;81.03;100102.94;5009306;28;20394;-76
2021/07/29 05:15:07;;;;;;;5.55;2.15;;;;;;;19.18;80.69;100098.44;5003552;28;20193;-76
2021/07/29 05:17:33;;;;;;;4.22;2.38;;;;;;;19.44;79.94;100095.44;4974363;28;20033;-76
2021/07/29 05:19:58;;;;;;;2.83;2.00;;;;;;;19.38;79.84;100097.16;5001274;28;20056;-75
2021/07/29 05:22:23;;;;;;;2.38;2.15;;;;;;;19.47;80.00;100110.22;5002705;28;20380;-75
2021/07/29 05:24:49;;;;;;;6.38;2.10;;;;;;;19.80;79.06;100100.78;4989259;28;20449;-75
2021/07/29 05:27:14;;;;;;;3.83;2.30;;;;;;;19.93;77.88;100087.16;5006878;28;20053;-75
2021/07/29 05:29:40;;;;;;;3.78;2.35;;;;;;;20.23;76.74;100092.19;5007651;28;20061;-76
2021/07/29 05:32:06;;;;;;;3.90;2.08;;;;;;;21.17;73.36;100085.09;4989670;28;20367;-76
2021/07/29 05:34:33;;;;;;;4.15;2.00;;;;;;;21.92;69.05;100087.63;5007773;28;20502;-75
2021/07/29 05:36:59;;;;;;;6.25;2.20;;;;;;;22.50;66.17;100096.09;4987601;28;20026;-76
2021/07/29 05:39:24;;;;;;;6.80;2.28;;;;;;;22.87;65.16;100092.34;5008420;28;20821;-76
2021/07/29 05:41:50;;;;;;;2.65;1.98;;;;;;;23.12;63.56;100078.38;4997534;28;20034;-75
2021/07/29 05:44:15;;;;;;;4.50;2.00;;;;;;;23.03;64.37;100080.34;5009155;28;20025;-76
2021/07/29 05:46:41;;;;;;;5.45;2.20;;;;;;;23.49;63.24;100083.97;5009654;28;20087;-76
2021/07/29 05:49:06;;;;;;;4.80;2.33;;;;;;;23.87;62.07;100089.78;4992412;28;20144;-75
2021/07/29 05:51:31;;;;;;;4.88;2.28;;;;;;;24.35;60.68;100091.59;4996991;28;20120;-76
2021/07/29 05:53:57;;;;;;;4.90;2.20;;;;;;;24.53;59.68;100094.31;4997715;28;20500;-76
2021/07/29 05:56:22;;;;;;;4.47;2.00;;;;;;;24.40;59.25;100087.47;5010639;28;20552;-76
2021/07/29 05:58:48;;;;;;;4.95;2.05;;;;;;;24.40;59.21;100081.97;4992004;28;20034;-75
2021/07/29 06:01:13;;;;;;;6.22;2.15;;;;;;;24.50;58.41;100086.22;4992896;28;20026;-75
2021/07/29 06:03:39;;;;;;;6.50;2.45;;;;;;;24.37;59.47;100080.88;5009574;28;20414;-75
2021/07/29 06:06:04;;;;;;;6.97;2.15;;;;;;;24.43;58.29;100081.78;4991528;28;20025;-76
2021/07/29 06:08:30;;;;;;;3.90;2.15;;;;;;;24.48;58.45;100083.16;4979269;28;20630;-78
2021/07/29 06:10:55;;;;;;;3.97;2.08;;;;;;;24.50;59.04;100086.22;5013889;28;20041;-75
2021/07/29 06:13:21;;;;;;;5.45;2.50;;;;;;;24.43;58.24;100081.78;5012867;28;20451;-75
2021/07/29 06:15:46;;;;;;;6.60;1.73;;;;;;;24.12;58.60;100073.75;4994672;28;20446;-75
2021/07/29 06:18:13;;;;;;;8.55;2.22;;;;;;;23.66;60.39;100085.97;4995928;28;20041;-76
2021/07/29 06:20:39;;;;;;;5.78;2.05;;;;;;;23.90;59.67;100077.88;4979680;28;20061;-76
2021/07/29 06:23:05;;;;;;;3.83;1.90;;;;;;;23.69;57.90;100085.06;4978129;28;20069;-76
2021/07/29 06:25:30;;;;;;;3.70;1.67;;;;;;;23.59;59.04;100082.78;4995512;28;20057;-75
2021/07/29 06:27:56;;;;;;;4.07;1.95;;;;;;;23.21;60.69;100089.41;5011529;28;20076;-75
2021/07/29 06:30:21;;;;;;;3.95;1.65;;;;;;;23.03;61.99;100078.38;4995463;28;20037;-75
2021/07/29 06:32:47;;;;;;;5.78;2.00;;;;;;;23.03;60.55;100078.38;4991844;28;20037;-75
2021/07/29 06:35:12;;;;;;;4.30;1.92;;;;;;;22.91;61.14;100087.47;4993976;28;20029;-75
2021/07/29 06:37:38;;;;;;;6.40;1.88;;;;;;;23.14;60.54;100084.19;5006199;28;20054;-75
2021/07/29 06:40:05;;;;;;;4.40;1.75;;;;;;;22.40;61.04;100091.78;4996107;28;20084;-75
2021/07/29 06:42:31;;;;;;;6.82;1.75;;;;;;;22.33;63.26;100092.81;5008685;28;20034;-75
2021/07/29 06:44:57;;;;;;;4.05;1.73;;;;;;;22.33;62.68;100081.06;5053079;22;20051;-76
2021/07/29 06:47:23;;;;;;;4.93;1.85;;;;;;;22.48;62.17;100086.78;5049979;28;20037;-75
2021/07/29 06:49:50;;;;;;;5.47;1.52;;;;;;;22.78;61.85;100088.81;5060909;28;20042;-76
2021/07/29 06:52:16;;;;;;;3.85;1.73;;;;;;;23.04;61.75;100082.63;5056532;28;20554;-76
2021/07/29 06:54:42;;;;;;;3.72;1.63;;;;;;;23.46;60.89;100091.16;5047731;28;20040;-76
2021/07/29 06:57:09;;;;;;;7.38;2.13;;;;;;;23.45;59.22;100097.09;5060208;28;20032;-76
2021/07/29 06:59:35;;;;;;;7.15;2.20;;;;;;;22.97;59.94;100096.66;5044450;28;20056;-76
2021/07/29 07:02:01;;;;;;;5.53;1.60;;;;;;;22.76;61.22;100085.75;5055544;28;20447;-76
2021/07/29 07:04:27;;;;;;;5.35;2.05;;;;;;;22.68;60.75;100088.00;5066478;28;20117;-76
2021/07/29 07:06:52;;;;;;;5.00;1.55;;;;;;;23.03;61.06;100092.09;5054109;28;20133;-76
2021/07/29 07:09:18;;;;;;;8.95;2.10;;;;;;;22.91;60.57;100101.22;5066922;28;20496;-76
2021/07/29 07:11:43;;;;;;;6.43;1.88;;;;;;;22.71;60.86;100098.06;5063147;28;20017;-75
2021/07/29 07:14:09;;;;;;;7.20;2.15;;;;;;;22.68;61.47;100093.50;5070681;28;20028;-75
2021/07/29 07:16:35;;;;;;;14.23;2.13;;;;;;;22.63;61.31;100094.06;5052618;28;20116;-76
2021/07/29 07:19:01;;;;;;;3.45;1.60;;;;;;;22.40;62.32;100089.78;5048562;28;20028;-76
2021/07/29 07:21:26;;;;;;;12.85;2.10;;;;;;;22.40;62.20;100091.78;5068956;28;20029;-76
2021/07/29 07:23:52;;;;;;;3.38;1.80;;;;;;;22.59;60.77;100089.94;5067862;28;20089;-76
2021/07/29 07:26:20;;;;;;;2.20;1.70;;;;;;;22.60;59.15;100099.69;5067517;28;20144;-76
2021/07/29 07:28:47;;;;;;;8.10;1.50;;;;;;;22.40;60.74;100100.00;5070339;28;20499;-76
2021/07/29 07:31:13;;;;;;;3.67;1.75;;;;;;;22.31;59.46;100106.22;5040293;28;20041;-76
2021/07/29 07:33:39;;;;;;;9.60;1.63;;;;;;;22.31;59.57;100097.97;5069124;28;20051;-76
2021/07/29 07:36:04;;;;;;;5.28;1.80;;;;;;;22.34;58.92;100093.56;5069781;28;20032;-76
2021/07/29 07:38:30;;;;;;;5.57;1.70;;;;;;;22.22;59.67;100102.66;5050925;28;20128;-75
2021/07/29 07:40:55;;;;;;;6.35;1.45;;;;;;;22.22;60.76;100100.66;5036911;28;20437;-75
2021/07/29 07:43:22;;;;;;;5.32;1.48;;;;;;;22.10;60.77;100107.00;5057430;28;20049;-75
2021/07/29 07:45:49;;;;;;;4.75;1.52;;;;;;;21.97;60.46;100095.28;5070995;28;20032;-76
2021/07/29 07:48:15;;;;;;;5.53;1.90;;;;;;;22.01;60.25;100095.94;5037319;28;20040;-75
2021/07/29 07:50:41;;;;;;;3.85;1.25;;;;;;;22.15;59.73;100102.88;5072004;28;20031;-75
2021/07/29 07:53:06;;;;;;;4.35;1.38;;;;;;;22.25;58.02;100091.53;5063194;28;20549;-75
2021/07/29 07:55:34;;;;;;;5.10;1.50;;;;;;;22.48;58.38;100104.03;5070749;28;20044;-75
2021/07/29 07:57:59;;;;;;;6.88;1.60;;;;;;;22.43;57.95;100094.38;5036503;28;20047;-75
2021/07/29 08:00:25;;;;;;;6.45;1.50;;;;;;;22.57;58.39;100109.59;5047028;28;20036;-75
2021/07/29 08:02:50;;;;;;;4.97;1.50;;;;;;;22.65;59.70;100097.13;5065655;28;20074;-75
2021/07/29 08:05:16;;;;;;;7.35;2.13;;;;;;;22.91;59.15;100086.72;5051784;28;20135;-75
2021/07/29 08:07:41;;;;;;;4.57;1.35;;;;;;;23.03;58.39;100089.38;5051902;28;20028;-76
2021/07/29 08:10:07;;;;;;;2.85;1.60;;;;;;;23.21;57.86;100094.88;5051413;28;20029;-76
2021/07/29 08:12:33;;;;;;;7.95;1.67;;;;;;;22.93;57.08;100098.78;5039826;28;20035;-76
2021/07/29 08:14:58;;;;;;;5.72;1.60;;;;;;;22.72;58.89;100091.38;5058137;28;20036;-76
2021/07/29 08:17:23;;;;;;;4.93;1.70;;;;;;;22.56;59.30;100102.53;5050326;28;20036;-76
2021/07/29 08:19:49;;;;;;;3.90;1.63;;;;;;;22.73;59.58;100098.38;5052072;22;20052;-77
2021/07/29 08:22:14;;;;;;;4.38;1.40;;;;;;;23.35;58.84;100098.31;5030376;28;20560;-76
2021/07/29 08:24:40;;;;;;;7.72;1.52;;;;;;;23.42;56.67;100078.78;5048307;28;20112;-76
2021/07/29 08:27:06;;;;;;;3.33;1.42;;;;;;;23.24;57.00;100101.47;5049882;28;20098;-77
2021/07/29 08:29:33;;;;;;;4.65;1.70;;;;;;;23.07;56.06;100100.19;5050624;28;20037;-77
2021/07/29 08:31:59;;;;;;;5.20;1.50;;;;;;;23.11;57.00;100111.81;5043259;28;20029;-76
2021/07/29 08:34:24;;;;;;;4.38;1.75;;;;;;;23.12;56.88;100114.13;5040871;28;20028;-77
2021/07/29 08:36:50;;;;;;;4.38;1.83;;;;;;;22.63;57.87;100107.78;5044688;28;20064;-77
2021/07/29 08:39:15;;;;;;;3.47;1.77;;;;;;;22.69;58.26;100100.50;5039229;28;21093;-77
2021/07/29 08:41:41;;;;;;;6.32;1.55;;;;;;;22.77;57.79;100107.25;5025971;28;20045;-78
2021/07/29 08:44:07;;;;;;;3.83;1.50;;;;;;;22.96;57.45;100103.34;5022106;28;20039;-78
2021/07/29 08:46:35;;;;;;;6.82;1.85;;;;;;;23.23;56.95;100097.94;5028223;28;20030;-77
2021/07/29 08:49:01;;;;;;;4.95;1.40;;;;;;;23.26;56.42;100097.06;5022530;28;20548;-77
2021/07/29 08:51:27;;;;;;;9.40;1.70;;;;;;;23.29;55.69;100100.84;5047015;28;20037;-77
2021/07/29 08:53:53;;;;;;;6.65;1.45;;;;;;;23.08;55.36;100098.97;5046876;28;20441;-79
2021/07/29 08:56:24;;;;;;;3.33;1.50;;;;;;;23.13;55.77;100099.13;5050542;28;20037;-77
2021/07/29 08:58:53;;;;;;;6.03;1.15;;;;;;;23.25;55.12;100103.75;5046730;28;20138;-77
2021/07/29 09:01:18;;;;;;;7.78;2.00;;;;;;;23.42;54.13;100111.78;5046360;28;20140;-78
2021/07/29 09:03:44;;;;;;;6.15;1.55;;;;;;;23.34;53.39;100094.03;5040106;28;20572;-77
2021/07/29 09:06:14;;;;;;;4.32;1.40;;;;;;;23.20;52.80;100098.09;5049636;28;20052;-79
2021/07/29 09:08:44;;;;;;;6.70;1.50;;;;;;;23.15;52.67;100101.47;5048333;28;20107;-77
2021/07/29 09:11:27;;;;;;;4.15;1.30;;;;;;;23.36;51.83;100105.34;5046373;28;20112;-77
2021/07/29 09:14:18;;;;;;;3.20;1.35;;;;;;;23.73;50.86;100101.44;5038297;28;20065;-77
2021/07/29 09:16:54;;;;;;;6.97;1.20;;;;;;;23.79;51.02;100103.09;5014257;28;20043;-76
2021/07/29 09:19:34;;;;;;;9.57;1.35;;;;;;;24.07;51.13;100099.16;5049818;28;20037;-77
2021/07/29 09:22:12;;;;;;;5.95;1.17;;;;;;;24.50;50.01;100111.78;5022268;28;20041;-77
2021/07/29 09:25:00;;;;;;;5.50;1.65;;;;;;;23.82;50.03;100110.44;5037576;28;20037;-77
2021/07/29 09:27:47;;;;;;;6.97;1.20;;;;;;;24.00;50.19;100104.94;5003695;28;20044;-78
2021/07/29 09:30:25;;;;;;;7.18;1.30;;;;;;;23.92;50.82;100100.97;5029439;28;20045;-78
2021/07/29 09:32:52;;;;;;;6.40;1.00;;;;;;;24.28;49.04;100107.69;5031654;28;20060;-78
2021/07/29 09:35:30;;;;;;;3.90;1.23;;;;;;;23.88;48.78;100107.84;5039178;28;20028;-78
2021/07/29 09:37:56;;;;;;;12.07;1.80;;;;;;;23.74;50.09;100102.94;5017940;28;20437;-77
2021/07/29 09:40:22;;;;;;;3.55;1.00;;;;;;;23.86;49.36;100107.53;5026172;28;20133;-77
2021/07/29 09:43:07;;;;;;;7.40;1.50;;;;;;;23.63;51.42;100102.63;5038518;28;20044;-77
2021/07/29 09:45:33;;;;;;;4.30;1.40;;;;;;;23.77;51.41;100102.03;5033598;28;20025;-77
2021/07/29 09:47:58;;;;;;;3.65;1.50;;;;;;;23.81;50.54;100099.91;5046469;28;20033;-76
2021/07/29 09:50:24;;;;;;;4.80;1.30;;;;;;;23.80;50.31;100101.88;5024583;28;20082;-76
2021/07/29 09:52:52;;;;;;;4.15;1.63;;;;;;;23.65;50.72;100103.72;5038221;28;20485;-76
2021/07/29 09:55:18;;;;;;;4.10;1.13;;;;;;;23.42;50.18;100115.28;5042943;28;20037;-76
2021/07/29 09:58:33;;;;;;;5.03;1.20;;;;;;;23.51;50.28;100106.28;5052414;28;20040;-76
2021/07/29 10:00:59;;;;;;;8.05;1.17;;;;;;;24.00;49.32;100110.44;5040789;28;20048;-76
2021/07/29 10:03:26;;;;;;;5.68;1.25;;;;;;;23.90;48.10;100108.94;5027432;28;20493;-76
2021/07/29 10:06:05;;;;;;;7.32;1.10;;;;;;;24.18;47.43;100121.47;5045120;28;20409;-76
2021/07/29 10:08:31;;;;;;;1.95;1.02;;;;;;;24.17;46.85;100111.69;5045355;28;20025;-76
2021/07/29 10:11:01;;;;;;;3.90;1.15;;;;;;;24.36;46.73;100111.66;5032042;28;20448;-76
2021/07/29 10:13:40;;;;;;;6.63;1.30;;;;;;;24.44;47.35;100116.38;5044120;28;20029;-76
2021/07/29 10:16:08;;;;;;;5.28;1.20;;;;;;;24.86;46.82;100108.16;5032566;28;20037;-76
2021/07/29 10:18:51;;;;;;;3.85;1.00;;;;;;;24.61;46.01;100106.53;5028449;28;20456;-76
2021/07/29 10:21:23;;;;;;;8.52;1.17;;;;;;;24.69;46.26;100118.75;5023957;28;20107;-76
2021/07/29 10:23:54;;;;;;;11.88;1.40;;;;;;;24.66;47.55;100119.69;5028927;28;20038;-77
2021/07/29 10:26:20;;;;;;;5.43;1.20;;;;;;;24.21;45.95;100122.53;5039328;28;20037;-76
2021/07/29 10:28:46;;;;;;;2.90;1.38;;;;;;;23.94;47.66;100128.03;5029075;28;20041;-76
2021/07/29 10:31:14;;;;;;;6.28;1.30;;;;;;;24.03;48.02;100119.78;5029481;28;20077;-76
2021/07/29 10:33:40;;;;;;;3.17;1.20;;;;;;;24.24;48.21;100123.59;5028457;28;20090;-76
2021/07/29 10:36:08;;;;;;;4.65;1.13;;;;;;;24.55;48.76;100138.69;5007498;28;20029;-76
2021/07/29 10:38:39;;;;;;;5.10;1.10;;;;;;;24.51;47.92;100129.81;5033307;28;20512;-76
2021/07/29 10:41:23;;;;;;;2.85;1.30;;;;;;;24.92;48.07;100120.84;5047358;28;20048;-76
2021/07/29 10:43:48;;;;;;;2.78;1.10;;;;;;;25.30;45.93;100130.47;5050636;28;20508;-76
2021/07/29 10:46:14;;;;;;;4.15;1.10;;;;;;;25.51;45.84;100129.47;5039852;28;20029;-77
2021/07/29 10:48:44;;;;;;;5.68;1.20;;;;;;;25.77;44.81;100130.50;5045944;28;20033;-77
2021/07/29 10:51:23;;;;;;;4.88;1.20;;;;;;;25.44;45.22;100124.28;5033799;28;20116;-76
2021/07/29 10:53:56;;;;;;;3.33;1.00;;;;;;;25.18;45.33;100126.72;5026619;28;20178;-76
2021/07/29 10:56:25;;;;;;;3.20;0.95;;;;;;;24.46;45.96;100135.19;5043583;28;20034;-76
2021/07/29 10:58:55;;;;;;;3.88;1.02;;;;;;;24.40;46.80;100132.31;5051452;28;20111;-76
2021/07/29 11:01:21;;;;;;;3.15;1.23;;;;;;;24.10;47.10;100133.22;5051540;28;20665;-77
2021/07/29 11:03:58;;;;;;;3.53;0.88;;;;;;;24.02;47.39;100135.53;5034185;28;20029;-76
2021/07/29 11:06:35;;;;;;;7.15;0.90;;;;;;;24.04;48.96;100141.34;5027972;28;20033;-76
2021/07/29 11:09:13;;;;;;;5.50;1.35;;;;;;;24.24;47.42;100135.38;5040771;28;20179;-76
2021/07/29 11:11:40;;;;;;;4.25;1.10;;;;;;;24.49;46.62;100139.75;5019686;28;20026;-76
2021/07/29 11:14:07;;;;;;;5.03;1.45;;;;;;;24.53;46.46;100146.66;5047565;28;20029;-77
2021/07/29 11:16:33;;;;;;;7.43;1.48;;;;;;;24.28;46.28;100143.47;5049453;28;20033;-76
2021/07/29 11:19:03;;;;;;;5.15;1.10;;;;;;;24.07;46.82;100145.19;5033085;28;20120;-77
2021/07/29 11:21:29;;;;;;;4.23;1.20;;;;;;;23.95;47.75;100140.56;5040984;28;20405;-76
2021/07/29 11:23:55;;;;;;;3.75;1.08;;;;;;;23.86;47.68;100141.31;5051167;28;20299;-76
2021/07/29 11:26:21;;;;;;;6.75;1.27;;;;;;;23.95;48.00;100144.06;5044464;28;20513;-76